New London, Wisconsin
Current Conditions -  °F | °C
As of 2:15 AM on Monday 24 Nov 2014 (Local Time) from KPCZ Reporting Station
Drizzle Drizzle  
Wind Chill: 43°   Ceiling: 100
Heat Index: 43°   Visibility: 0.75mi
Dew Point: 42°   Wind: 0mph
Humidity: 95%   Direction: NA
Pressure: 29.07"   Gusts: NA
Location:  44.39°N, 88.74°W
Report Text: KPCZ 240815Z AUTO 00000KT 3/4SM DZ OVC001 06/06 A2907 RMK AO2 P0001 T00630056
Loading
Personal Weather Stations






























Interactive Weather Map New forecast layout! Learn more

10-Day Weather Forecast

Advertisements
Track Severe Weather on mobile